createdAt,value
2023-03-17T00:00:45.608Z,2.22
2023-03-17T00:03:36.071Z,1.95
2023-03-17T00:06:04.827Z,1.77
2023-03-17T00:08:34.144Z,2.10
2023-03-17T00:11:02.172Z,2.38
2023-03-17T00:13:31.021Z,2.00
2023-03-17T00:16:04.296Z,2.40
2023-03-17T00:18:33.571Z,2.10
2023-03-17T00:21:00.509Z,1.95
2023-03-17T00:23:27.658Z,2.10
2023-03-17T00:25:54.659Z,2.05
2023-03-17T00:28:27.147Z,1.98
2023-03-17T00:31:07.872Z,1.90
2023-03-17T00:33:37.385Z,2.20
2023-03-17T00:36:04.600Z,1.70
2023-03-17T00:38:31.608Z,2.75
2023-03-17T00:40:58.924Z,1.63
2023-03-17T00:43:26.076Z,2.13
2023-03-17T00:45:53.366Z,1.73
2023-03-17T00:48:22.854Z,2.30
2023-03-17T00:50:51.148Z,1.98
2023-03-17T00:53:21.724Z,1.67
2023-03-17T00:55:49.517Z,2.35
2023-03-17T00:58:29.312Z,2.03
2023-03-17T01:00:57.048Z,2.20
2023-03-17T01:03:25.012Z,2.13
2023-03-17T01:05:54.317Z,2.50
2023-03-17T01:08:22.810Z,2.42
2023-03-17T01:10:50.257Z,2.15
2023-03-17T01:13:19.235Z,2.10
2023-03-17T01:15:48.698Z,2.03
2023-03-17T01:18:18.382Z,2.75
2023-03-17T01:20:45.919Z,2.33
2023-03-17T01:23:13.994Z,1.67
2023-03-17T01:25:42.901Z,1.95
2023-03-17T01:28:15.209Z,1.98
2023-03-17T01:30:42.744Z,2.42
2023-03-17T01:33:14.804Z,2.15
2023-03-17T01:35:43.998Z,1.70
2023-03-17T01:38:11.983Z,2.10
2023-03-17T01:40:45.790Z,2.53
2023-03-17T01:43:12.746Z,2.42
2023-03-17T01:46:17.556Z,2.35
2023-03-17T01:48:53.576Z,2.42
2023-03-17T01:51:33.672Z,2.10
2023-03-17T01:54:03.804Z,2.33
2023-03-17T01:56:32.738Z,2.38
2023-03-17T01:59:03.006Z,1.52
2023-03-17T02:01:38.148Z,2.33
2023-03-17T02:04:06.769Z,1.55
2023-03-17T02:06:35.855Z,2.63
2023-03-17T02:09:04.489Z,2.20
2023-03-17T02:11:33.475Z,2.50
2023-03-17T02:14:01.972Z,2.08
2023-03-17T02:16:30.520Z,2.22
2023-03-17T02:18:57.525Z,3.03
2023-03-17T02:21:31.491Z,2.17
2023-03-17T02:24:01.749Z,2.45
2023-03-17T02:26:32.002Z,2.00
2023-03-17T02:28:59.320Z,2.47
2023-03-17T02:31:27.692Z,1.92
2023-03-17T02:33:54.784Z,2.33
2023-03-17T02:36:22.436Z,2.05
2023-03-17T02:38:49.431Z,2.13
2023-03-17T02:41:17.619Z,2.25
2023-03-17T02:43:44.927Z,2.22
2023-03-17T02:46:12.707Z,2.08
2023-03-17T02:48:40.250Z,2.88
2023-03-17T02:51:07.688Z,2.58
2023-03-17T02:53:34.741Z,2.40
2023-03-17T02:56:02.497Z,1.83
2023-03-17T02:58:29.944Z,2.30
2023-03-17T03:00:57.047Z,1.83
2023-03-17T03:03:24.264Z,2.47
2023-03-17T03:05:51.312Z,2.08
2023-03-17T03:08:18.558Z,2.20
2023-03-17T03:10:46.291Z,1.90
2023-03-17T03:13:13.549Z,1.60
2023-03-17T03:15:44.322Z,2.22
2023-03-17T03:19:01.096Z,2.40
2023-03-17T03:21:28.676Z,1.15
2023-03-17T03:23:56.159Z,2.15
2023-03-17T03:26:23.029Z,2.60
2023-03-17T03:28:53.977Z,2.00
2023-03-17T03:31:20.899Z,2.40
2023-03-17T03:33:47.973Z,2.45
2023-03-17T03:36:15.231Z,2.47
2023-03-17T03:38:42.850Z,2.10
2023-03-17T03:41:10.061Z,2.50
2023-03-17T03:43:37.097Z,2.10
2023-03-17T03:46:04.955Z,2.45
2023-03-17T03:48:32.287Z,2.45
2023-03-17T03:51:00.993Z,2.13
2023-03-17T03:53:29.607Z,1.95
2023-03-17T03:55:56.537Z,2.55
2023-03-17T03:58:23.955Z,1.90
2023-03-17T04:00:51.321Z,1.95
2023-03-17T04:03:18.471Z,2.08
2023-03-17T04:05:45.690Z,1.90
2023-03-17T04:08:20.464Z,2.30
2023-03-17T04:10:48.028Z,2.08
2023-03-17T04:13:15.934Z,1.95
2023-03-17T04:15:43.119Z,2.00
2023-03-17T04:18:10.239Z,2.60
2023-03-17T04:20:37.905Z,2.53
2023-03-17T04:23:11.056Z,2.30
2023-03-17T04:25:38.523Z,1.98
2023-03-17T04:28:05.661Z,2.65
2023-03-17T04:30:33.011Z,2.00
2023-03-17T04:33:00.334Z,2.20
2023-03-17T04:35:27.687Z,2.08
2023-03-17T04:37:54.595Z,2.40
2023-03-17T04:40:21.586Z,2.00
2023-03-17T04:42:48.853Z,3.03
2023-03-17T04:45:16.963Z,1.98
2023-03-17T04:47:46.477Z,2.40
2023-03-17T04:50:14.958Z,2.40
2023-03-17T04:52:42.437Z,2.15
2023-03-17T04:55:10.389Z,2.45
2023-03-17T04:57:38.992Z,2.22
2023-03-17T05:00:07.385Z,2.20
2023-03-17T05:02:35.103Z,2.10
2023-03-17T05:05:03.058Z,2.08
2023-03-17T05:07:32.194Z,2.55
2023-03-17T05:10:00.484Z,2.00
2023-03-17T05:12:27.681Z,2.00
2023-03-17T05:14:54.778Z,2.70
2023-03-17T05:17:21.800Z,1.85
2023-03-17T05:19:48.920Z,2.60
2023-03-17T05:22:17.073Z,2.17
2023-03-17T05:24:44.400Z,2.35
2023-03-17T05:27:12.835Z,2.38
2023-03-17T05:29:39.767Z,2.47
2023-03-17T05:32:06.738Z,2.13
2023-03-17T05:34:33.771Z,2.53
2023-03-17T05:37:01.200Z,2.10
2023-03-17T05:39:28.235Z,2.00
2023-03-17T05:41:55.036Z,2.35
2023-03-17T05:44:21.817Z,2.22
2023-03-17T05:46:49.084Z,2.13
2023-03-17T05:49:16.463Z,2.22
2023-03-17T05:51:43.364Z,2.20
2023-03-17T05:54:10.469Z,2.75
2023-03-17T05:56:37.629Z,2.42
2023-03-17T05:59:04.893Z,2.75
2023-03-17T06:01:31.735Z,3.00
2023-03-17T06:03:58.551Z,2.53
2023-03-17T06:06:26.054Z,2.72
2023-03-17T06:08:53.554Z,2.33
2023-03-17T06:11:22.082Z,2.13
2023-03-17T06:13:49.202Z,2.60
2023-03-17T06:16:16.928Z,2.45
2023-03-17T06:18:43.988Z,2.53
2023-03-17T06:21:11.019Z,2.80
2023-03-17T06:23:38.102Z,1.77
2023-03-17T06:26:06.120Z,2.60
2023-03-17T06:28:33.083Z,2.58
2023-03-17T06:31:00.477Z,2.42
2023-03-17T06:33:27.737Z,2.65
2023-03-17T06:35:54.909Z,2.53
2023-03-17T06:38:22.199Z,2.10
2023-03-17T06:40:49.323Z,3.10
2023-03-17T06:43:17.713Z,3.40
2023-03-17T06:45:44.670Z,3.13
2023-03-17T06:50:57.502Z,2.40
2023-03-17T06:53:24.473Z,2.00
2023-03-17T06:55:51.711Z,2.25
2023-03-17T06:58:20.683Z,2.35
2023-03-17T07:00:49.169Z,2.25
2023-03-17T07:03:17.167Z,2.47
2023-03-17T07:05:44.414Z,3.15
2023-03-17T07:08:11.881Z,2.05
2023-03-17T07:10:41.196Z,2.58
2023-03-17T07:13:09.035Z,2.80
2023-03-17T07:15:37.496Z,3.35
2023-03-17T07:18:06.715Z,2.78
2023-03-17T07:20:33.719Z,2.80
2023-03-17T07:23:00.967Z,2.80
2023-03-17T07:25:28.187Z,2.40
2023-03-17T07:27:55.870Z,2.92
2023-03-17T07:30:23.317Z,2.85
2023-03-17T07:32:50.995Z,2.45
2023-03-17T07:35:18.669Z,2.75
2023-03-17T07:37:45.818Z,2.72
2023-03-17T07:40:12.872Z,2.63
2023-03-17T07:42:39.660Z,2.83
2023-03-17T07:45:08.047Z,2.20
2023-03-17T07:47:35.132Z,2.13
2023-03-17T07:50:02.035Z,2.50
2023-03-17T07:52:28.808Z,1.90
2023-03-17T07:54:56.160Z,2.55
2023-03-17T07:57:22.870Z,2.45
2023-03-17T07:59:50.932Z,2.67
2023-03-17T08:02:22.356Z,3.03
2023-03-17T08:04:49.431Z,2.58
2023-03-17T08:07:16.163Z,2.72
2023-03-17T08:09:44.151Z,2.88
2023-03-17T08:12:11.830Z,2.85
2023-03-17T08:14:38.637Z,2.75
2023-03-17T08:17:06.566Z,2.42
2023-03-17T08:19:33.771Z,2.45
2023-03-17T08:22:01.481Z,2.95
2023-03-17T08:24:28.698Z,2.80
2023-03-17T08:26:55.906Z,2.88
2023-03-17T08:29:23.185Z,2.92
2023-03-17T08:31:50.180Z,2.85
2023-03-17T08:34:17.497Z,3.00
2023-03-17T08:36:44.457Z,2.85
2023-03-17T08:39:11.319Z,2.55
2023-03-17T08:41:38.851Z,2.47
2023-03-17T08:44:05.934Z,3.53
2023-03-17T08:46:33.142Z,2.60
2023-03-17T08:49:02.028Z,3.17
2023-03-17T08:51:31.855Z,2.80
2023-03-17T08:54:00.011Z,2.95
2023-03-17T08:56:27.483Z,2.95
2023-03-17T08:58:54.679Z,2.70
2023-03-17T09:01:23.065Z,3.30
2023-03-17T09:03:51.529Z,3.30
2023-03-17T09:06:18.396Z,3.28
2023-03-17T09:08:47.498Z,3.00
2023-03-17T09:11:17.276Z,2.80
2023-03-17T09:13:46.614Z,3.20
2023-03-17T09:16:15.022Z,3.97
2023-03-17T09:18:43.511Z,3.00
2023-03-17T09:21:12.072Z,3.67
2023-03-17T09:23:39.368Z,3.05
2023-03-17T09:26:06.594Z,3.33
2023-03-17T09:28:34.080Z,3.15
2023-03-17T09:31:03.116Z,3.15
2023-03-17T09:33:31.105Z,3.75
2023-03-17T09:35:58.082Z,4.82
2023-03-17T09:38:26.871Z,3.97
2023-03-17T09:41:24.114Z,4.25
2023-03-17T09:44:08.987Z,4.00
2023-03-17T09:46:53.484Z,4.40
2023-03-17T09:49:25.335Z,4.63
2023-03-17T09:51:53.279Z,4.53
2023-03-17T09:54:27.175Z,4.45
2023-03-17T09:57:26.798Z,5.10
2023-03-17T10:00:05.660Z,5.35
2023-03-17T10:02:40.026Z,4.90
2023-03-17T10:05:31.917Z,6.28
2023-03-17T10:08:26.986Z,5.03
2023-03-17T10:11:13.569Z,5.30
2023-03-17T10:14:10.406Z,4.68
2023-03-17T10:16:53.843Z,4.53
2023-03-17T10:21:55.662Z,5.18
2023-03-17T10:24:24.504Z,4.43
2023-03-17T10:26:55.295Z,4.65
2023-03-17T10:29:24.099Z,4.32
2023-03-17T10:31:56.259Z,4.68
2023-03-17T10:34:30.275Z,4.78
2023-03-17T10:37:00.389Z,4.43
2023-03-17T10:39:28.126Z,3.78
2023-03-17T10:41:57.088Z,4.13
2023-03-17T10:44:40.899Z,4.07
2023-03-17T10:47:24.203Z,4.75
2023-03-17T10:49:52.629Z,4.18
2023-03-17T10:52:23.342Z,4.57
2023-03-17T10:54:53.791Z,4.20
2023-03-17T10:57:21.439Z,4.10
2023-03-17T10:59:54.206Z,4.60
2023-03-17T11:02:29.573Z,4.93
2023-03-17T11:05:03.778Z,4.88
2023-03-17T11:07:41.841Z,4.68
2023-03-17T11:10:24.970Z,4.85
2023-03-17T11:13:01.700Z,5.05
2023-03-17T11:15:35.865Z,4.88
2023-03-17T11:18:08.022Z,5.60
2023-03-17T11:20:54.059Z,4.47
2023-03-17T11:23:24.034Z,5.57
2023-03-17T11:26:27.871Z,5.75
2023-03-17T11:29:33.410Z,5.72
2023-03-17T11:32:15.382Z,5.10
2023-03-17T11:34:56.959Z,5.40
2023-03-17T11:37:54.521Z,5.18
2023-03-17T11:40:32.448Z,4.82
2023-03-17T11:43:17.975Z,5.13
2023-03-17T11:45:52.005Z,4.93
2023-03-17T11:48:38.985Z,4.47
2023-03-17T11:51:27.686Z,5.55
2023-03-17T11:54:08.191Z,5.20
2023-03-17T11:56:49.910Z,5.35
2023-03-17T12:00:00.874Z,5.32
2023-03-17T12:02:49.479Z,4.97
2023-03-17T12:05:20.742Z,4.57
2023-03-17T12:07:58.523Z,4.97
2023-03-17T12:10:45.282Z,5.32
2023-03-17T12:13:39.923Z,5.13
2023-03-17T12:16:23.058Z,4.90
2023-03-17T12:18:56.837Z,5.18
2023-03-17T12:22:04.475Z,5.40
2023-03-17T12:24:44.158Z,4.47
2023-03-17T12:27:28.886Z,4.95
2023-03-17T12:30:02.920Z,4.10
2023-03-17T12:32:44.643Z,4.53
2023-03-17T12:35:34.296Z,5.10
2023-03-17T12:38:08.080Z,4.63
2023-03-17T12:40:41.796Z,4.55
2023-03-17T12:43:14.425Z,4.90
2023-03-17T12:46:03.195Z,5.00
2023-03-17T12:48:54.736Z,4.38
2023-03-17T12:51:45.936Z,5.38
2023-03-17T12:54:21.591Z,4.90
2023-03-17T12:56:49.950Z,4.15
2023-03-17T12:59:24.632Z,5.00
2023-03-17T13:02:12.756Z,4.80
2023-03-17T13:04:47.632Z,4.93
2023-03-17T13:07:14.410Z,4.70
2023-03-17T13:10:10.206Z,4.78
2023-03-17T13:12:39.813Z,4.47
2023-03-17T13:15:25.294Z,5.38
2023-03-17T13:18:13.702Z,4.80
2023-03-17T13:20:43.629Z,4.53
2023-03-17T13:23:10.366Z,4.57
2023-03-17T13:25:41.340Z,6.18
2023-03-17T13:28:11.866Z,5.18
2023-03-17T13:30:38.916Z,5.47
2023-03-17T13:33:09.692Z,5.25
2023-03-17T13:35:39.511Z,6.72
2023-03-17T13:38:28.352Z,6.63
2023-03-17T13:41:24.151Z,6.43
2023-03-17T13:44:04.076Z,6.57
2023-03-17T13:46:37.157Z,6.38
2023-03-17T13:49:16.637Z,6.90
2023-03-17T13:51:59.481Z,6.13
2023-03-17T13:54:28.138Z,5.68
2023-03-17T13:56:57.148Z,5.90
2023-03-17T13:59:35.822Z,5.68
2023-03-17T14:02:20.895Z,6.00
2023-03-17T14:05:00.918Z,6.28
2023-03-17T14:07:31.737Z,6.32
2023-03-17T14:10:01.843Z,5.68
2023-03-17T14:12:55.724Z,6.22
2023-03-17T14:15:56.420Z,6.30
2023-03-17T14:18:32.200Z,5.93
2023-03-17T14:21:02.167Z,5.85
2023-03-17T14:23:30.755Z,5.88
2023-03-17T14:25:58.815Z,5.72
2023-03-17T14:28:32.475Z,5.50
2023-03-17T14:31:02.374Z,5.57
2023-03-17T14:33:31.299Z,5.03
2023-03-17T14:36:01.120Z,5.65
2023-03-17T14:38:31.072Z,6.80
2023-03-17T14:41:16.837Z,6.30
2023-03-17T14:43:44.726Z,6.07
2023-03-17T14:46:17.765Z,5.90
2023-03-17T14:48:49.082Z,5.90
2023-03-17T14:51:30.902Z,5.68
2023-03-17T14:54:00.960Z,6.45
2023-03-17T14:57:00.152Z,6.38
2023-03-17T14:59:31.041Z,6.15
2023-03-17T15:02:00.916Z,7.43
2023-03-17T15:04:30.739Z,7.68
2023-03-17T15:07:03.700Z,6.05
2023-03-17T15:09:36.036Z,6.05
2023-03-17T15:12:46.909Z,6.65
2023-03-17T15:15:33.709Z,6.70
2023-03-17T15:18:57.138Z,6.90
2023-03-17T15:21:47.121Z,6.95
2023-03-17T15:24:25.285Z,6.55
2023-03-17T15:27:03.257Z,5.97
2023-03-17T15:29:31.237Z,6.72
2023-03-17T15:32:12.739Z,6.38
2023-03-17T15:34:40.778Z,6.57
2023-03-17T15:37:23.609Z,6.50
2023-03-17T15:39:53.001Z,6.15
2023-03-17T15:42:21.776Z,6.20
2023-03-17T15:44:48.518Z,5.95
2023-03-17T15:47:17.481Z,6.18
2023-03-17T15:49:45.201Z,6.38
2023-03-17T15:52:17.536Z,5.63
2023-03-17T15:54:46.339Z,6.25
2023-03-17T15:57:13.619Z,5.95
2023-03-17T15:59:41.049Z,6.78
2023-03-17T16:02:16.573Z,6.30
2023-03-17T16:04:43.563Z,6.05
2023-03-17T16:07:13.014Z,6.45
2023-03-17T16:09:39.812Z,7.00
2023-03-17T16:12:11.109Z,6.28
2023-03-17T16:14:38.524Z,7.80
2023-03-17T16:17:06.716Z,7.43
2023-03-17T16:19:33.938Z,6.85
2023-03-17T16:22:00.764Z,6.40
2023-03-17T16:24:27.559Z,6.30
2023-03-17T16:26:54.180Z,7.15
2023-03-17T16:29:21.709Z,8.07
2023-03-17T16:31:50.718Z,7.70
2023-03-17T16:34:19.794Z,7.43
2023-03-17T16:36:48.389Z,7.15
2023-03-17T16:39:22.623Z,6.70
2023-03-17T16:41:50.630Z,6.60
2023-03-17T16:44:20.520Z,6.72
2023-03-17T16:46:47.500Z,6.20
2023-03-17T16:49:19.584Z,6.88
2023-03-17T16:51:46.708Z,6.47
2023-03-17T16:54:14.086Z,6.00
2023-03-17T16:56:42.152Z,6.10
2023-03-17T16:59:21.241Z,7.03
2023-03-17T17:01:48.172Z,8.45
2023-03-17T17:04:17.898Z,8.40
2023-03-17T17:06:44.521Z,8.80
2023-03-17T17:09:11.227Z,7.97
2023-03-17T17:11:38.251Z,8.60
2023-03-17T17:14:05.108Z,8.02
2023-03-17T17:16:35.966Z,7.57
2023-03-17T17:19:04.011Z,8.30
2023-03-17T17:21:31.975Z,9.05
2023-03-17T17:23:58.836Z,8.13
2023-03-17T17:26:25.629Z,9.55
2023-03-17T17:28:52.500Z,8.77
2023-03-17T17:31:19.419Z,8.70
2023-03-17T17:33:46.338Z,9.85
2023-03-17T17:36:16.394Z,13.23
2023-03-17T17:38:43.229Z,12.23
2023-03-17T17:41:11.614Z,15.32
2023-03-17T17:43:38.498Z,21.50
2023-03-17T17:46:11.049Z,16.38
2023-03-17T17:48:37.854Z,12.75
2023-03-17T17:51:04.666Z,12.07
2023-03-17T17:53:31.643Z,11.95
2023-03-17T17:55:58.833Z,10.82
2023-03-17T17:58:26.763Z,11.15
2023-03-17T18:00:55.492Z,12.15
2023-03-17T18:03:25.261Z,11.90
2023-03-17T18:05:56.714Z,12.20
2023-03-17T18:08:24.578Z,12.38
2023-03-17T18:10:52.281Z,12.35
2023-03-17T18:13:19.760Z,12.13
2023-03-17T18:15:46.995Z,12.10
2023-03-17T18:18:13.993Z,12.85
2023-03-17T18:20:41.092Z,11.77
2023-03-17T18:23:08.515Z,11.23
2023-03-17T18:25:35.985Z,11.00
2023-03-17T18:28:03.469Z,10.88
2023-03-17T18:30:31.991Z,12.13
2023-03-17T18:33:06.597Z,12.38
2023-03-17T18:35:34.317Z,12.85
2023-03-17T18:38:01.583Z,12.98
2023-03-17T18:40:28.746Z,10.68
2023-03-17T18:42:56.009Z,10.93
2023-03-17T18:45:23.096Z,10.07
2023-03-17T18:47:49.936Z,10.48
2023-03-17T18:50:17.524Z,11.60
2023-03-17T18:52:45.038Z,12.38
2023-03-17T18:55:14.307Z,11.60
2023-03-17T18:57:44.351Z,11.85
2023-03-17T19:00:13.321Z,11.45
2023-03-17T19:02:40.220Z,11.23
2023-03-17T19:05:07.613Z,12.27
2023-03-17T19:07:34.751Z,12.23
2023-03-17T19:10:01.516Z,12.90
2023-03-17T19:12:28.471Z,12.00
2023-03-17T19:14:55.241Z,12.93
2023-03-17T19:17:23.111Z,17.77
2023-03-17T19:19:52.835Z,19.42
2023-03-17T19:22:19.954Z,15.02
2023-03-17T19:24:48.172Z,17.90
2023-03-17T19:27:14.994Z,15.20
2023-03-17T19:29:42.076Z,14.43
2023-03-17T19:32:09.304Z,14.85
2023-03-17T19:34:36.275Z,13.07
2023-03-17T19:37:03.825Z,12.07
2023-03-17T19:39:31.807Z,13.63
2023-03-17T19:41:59.441Z,12.00
2023-03-17T19:44:26.620Z,12.63
2023-03-17T19:46:53.620Z,12.70
2023-03-17T19:49:21.370Z,12.00
2023-03-17T19:51:49.186Z,12.40
2023-03-17T19:54:16.734Z,12.68
2023-03-17T19:56:43.470Z,12.27
2023-03-17T19:59:10.660Z,14.32
2023-03-17T20:01:38.680Z,12.35
2023-03-17T20:04:07.139Z,13.77
2023-03-17T20:06:34.843Z,13.55
2023-03-17T20:09:04.390Z,13.63
2023-03-17T20:11:34.051Z,12.63
2023-03-17T20:14:02.611Z,12.20
2023-03-17T20:16:32.178Z,11.77
2023-03-17T20:18:59.703Z,11.65
2023-03-17T20:21:26.627Z,12.60
2023-03-17T20:23:53.608Z,11.85
2023-03-17T20:26:20.826Z,12.45
2023-03-17T20:28:47.913Z,13.52
2023-03-17T20:31:14.921Z,13.98
2023-03-17T20:33:42.049Z,14.38
2023-03-17T20:36:09.797Z,12.52
2023-03-17T20:38:40.195Z,17.70
2023-03-17T20:41:09.227Z,17.52
2023-03-17T20:43:37.560Z,17.23
2023-03-17T20:46:08.692Z,15.65
2023-03-17T20:48:37.292Z,16.55
2023-03-17T20:51:06.167Z,14.90
2023-03-17T20:53:34.454Z,14.55
2023-03-17T20:56:01.689Z,13.25
2023-03-17T20:58:29.034Z,13.07
2023-03-17T21:00:57.167Z,13.07
2023-03-17T21:03:24.326Z,10.75
2023-03-17T21:05:51.356Z,10.57
2023-03-17T21:08:19.095Z,7.93
2023-03-17T21:10:45.957Z,7.85
2023-03-17T21:13:12.972Z,7.85
2023-03-17T21:15:40.118Z,8.05
2023-03-17T21:18:06.863Z,7.50
2023-03-17T21:20:33.893Z,9.20
2023-03-17T21:23:03.379Z,8.95
2023-03-17T21:25:31.245Z,8.40
2023-03-17T21:27:59.176Z,8.70
2023-03-17T21:30:25.924Z,10.02
2023-03-17T21:32:55.144Z,9.80
2023-03-17T21:35:24.144Z,9.48
2023-03-17T21:37:51.953Z,8.70
2023-03-17T21:40:19.067Z,11.13
2023-03-17T21:42:46.172Z,10.20
2023-03-17T21:45:13.970Z,9.38
2023-03-17T21:47:41.441Z,9.25
2023-03-17T21:50:08.858Z,9.18
2023-03-17T21:52:35.650Z,10.10
2023-03-17T21:55:02.870Z,11.38
2023-03-17T21:57:29.745Z,11.07
2023-03-17T21:59:56.552Z,10.48
2023-03-17T22:02:23.878Z,10.98
2023-03-17T22:04:52.890Z,10.45
2023-03-17T22:07:21.188Z,11.25
2023-03-17T22:09:53.119Z,11.10
2023-03-17T22:12:21.396Z,10.32
2023-03-17T22:14:51.246Z,10.55
2023-03-17T22:17:17.942Z,9.88
2023-03-17T22:19:50.045Z,11.05
2023-03-17T22:22:16.929Z,10.85
2023-03-17T22:24:43.904Z,10.25
2023-03-17T22:27:10.684Z,10.63
2023-03-17T22:29:38.178Z,9.40
2023-03-17T22:32:05.336Z,9.52
2023-03-17T22:34:32.368Z,11.23
2023-03-17T22:36:59.436Z,10.88
2023-03-17T22:39:26.294Z,9.95
2023-03-17T22:41:53.240Z,10.27
2023-03-17T22:44:19.938Z,11.40
2023-03-17T22:46:46.762Z,10.20
2023-03-17T22:49:13.826Z,9.93
2023-03-17T22:51:43.910Z,10.35
2023-03-17T22:54:11.793Z,11.10
2023-03-17T22:56:38.928Z,11.15
2023-03-17T22:59:06.149Z,10.30
2023-03-17T23:01:33.443Z,11.45
2023-03-17T23:04:00.431Z,11.38
2023-03-17T23:06:27.411Z,11.30
2023-03-17T23:08:54.293Z,10.85
2023-03-17T23:11:25.872Z,10.52
2023-03-17T23:13:53.561Z,10.68
2023-03-17T23:16:20.869Z,10.95
2023-03-17T23:18:47.829Z,11.40
2023-03-17T23:21:37.828Z,11.60
2023-03-17T23:24:07.754Z,11.05
2023-03-17T23:26:36.991Z,12.13
2023-03-17T23:29:06.206Z,12.68
2023-03-17T23:31:34.221Z,12.30
2023-03-17T23:34:01.373Z,12.57
2023-03-17T23:36:28.436Z,12.48
2023-03-17T23:38:55.414Z,12.90
2023-03-17T23:41:22.793Z,13.93
2023-03-17T23:43:49.916Z,14.10
2023-03-17T23:46:20.385Z,14.30
2023-03-17T23:48:49.201Z,13.95
2023-03-17T23:51:16.588Z,14.18
2023-03-17T23:53:43.482Z,13.80
2023-03-17T23:56:11.511Z,14.55
2023-03-17T23:58:39.039Z,14.93
